createdAt,value
2023-11-22T00:04:43.513Z,0.13
2023-11-22T00:09:47.617Z,0.10
2023-11-22T00:14:50.754Z,0.00
2023-11-22T00:19:53.977Z,0.00
2023-11-22T00:24:56.288Z,0.40
2023-11-22T00:29:59.113Z,0.00
2023-11-22T00:35:01.654Z,0.13
2023-11-22T00:40:12.149Z,0.10
2023-11-22T00:45:14.824Z,0.20
2023-11-22T00:50:21.087Z,0.00
2023-11-22T00:55:23.690Z,0.00
2023-11-22T01:00:26.065Z,0.10
2023-11-22T01:05:28.768Z,0.00
2023-11-22T01:10:31.308Z,0.00
2023-11-22T01:15:33.756Z,0.10
2023-11-22T01:20:36.277Z,0.00
2023-11-22T01:25:38.900Z,0.20
2023-11-22T01:30:41.104Z,0.10
2023-11-22T01:35:43.274Z,0.32
2023-11-22T01:40:48.976Z,0.10
2023-11-22T01:45:51.510Z,0.10
2023-11-22T01:50:53.695Z,0.10
2023-11-22T01:55:56.123Z,0.10
2023-11-22T02:00:59.638Z,0.00
2023-11-22T02:06:02.079Z,0.10
2023-11-22T02:11:04.924Z,0.25
2023-11-22T02:16:07.994Z,0.10
2023-11-22T02:21:10.268Z,0.10
2023-11-22T02:26:13.283Z,0.10
2023-11-22T02:31:16.136Z,0.20
2023-11-22T02:36:20.694Z,0.28
2023-11-22T02:41:23.464Z,0.40
2023-11-22T02:46:27.560Z,0.22
2023-11-22T02:51:30.062Z,0.35
2023-11-22T02:56:32.345Z,0.10
2023-11-22T03:01:36.055Z,0.20
2023-11-22T03:06:38.503Z,0.13
2023-11-22T03:11:40.824Z,0.10
2023-11-22T03:16:44.143Z,0.17
2023-11-22T03:21:47.079Z,0.20
2023-11-22T03:26:49.302Z,0.03
2023-11-22T03:31:51.552Z,0.20
2023-11-22T03:36:53.774Z,0.10
2023-11-22T03:41:56.140Z,0.10
2023-11-22T03:46:58.543Z,0.00
2023-11-22T03:52:00.903Z,0.00
2023-11-22T03:57:03.518Z,0.10
2023-11-22T04:02:06.841Z,0.17
2023-11-22T04:07:09.664Z,0.00
2023-11-22T04:12:12.041Z,0.10
2023-11-22T04:17:14.347Z,0.20
2023-11-22T04:22:17.903Z,0.73
2023-11-22T04:27:20.109Z,0.60
2023-11-22T04:32:26.229Z,0.38
2023-11-22T04:37:33.578Z,0.22
2023-11-22T04:42:37.746Z,0.10
2023-11-22T04:47:41.356Z,0.40
2023-11-22T04:52:43.755Z,0.50
2023-11-22T04:57:47.231Z,0.50
2023-11-22T05:02:49.412Z,0.40
2023-11-22T05:07:51.822Z,0.50
2023-11-22T05:12:54.459Z,0.50
2023-11-22T05:17:57.358Z,0.50
2023-11-22T05:22:59.561Z,0.47
2023-11-22T05:28:02.113Z,0.32
2023-11-22T05:33:04.475Z,0.35
2023-11-22T05:38:06.770Z,0.20
2023-11-22T05:43:12.822Z,0.40
2023-11-22T05:48:15.359Z,0.20
2023-11-22T05:53:21.052Z,1.00
2023-11-22T05:58:23.661Z,0.43
2023-11-22T06:03:26.080Z,1.17
2023-11-22T06:08:28.488Z,0.80
2023-11-22T06:13:30.947Z,0.60
2023-11-22T06:18:34.658Z,0.68
2023-11-22T06:23:37.206Z,0.40
2023-11-22T06:28:39.482Z,0.40
2023-11-22T06:33:41.694Z,0.60
2023-11-22T06:38:44.405Z,0.85
2023-11-22T06:43:46.990Z,1.08
2023-11-22T06:48:50.843Z,0.90
2023-11-22T06:53:56.711Z,1.15
2023-11-22T06:59:00.098Z,1.10
2023-11-22T07:04:05.364Z,1.10
2023-11-22T07:14:13.561Z,0.85
2023-11-22T07:19:16.309Z,0.65
2023-11-22T07:24:19.822Z,0.40
2023-11-22T07:29:22.681Z,0.40
2023-11-22T07:34:24.988Z,0.75
2023-11-22T07:39:30.683Z,0.68
2023-11-22T07:44:34.094Z,0.63
2023-11-22T07:49:40.660Z,0.75
2023-11-22T07:59:45.133Z,0.60
2023-11-22T08:04:49.304Z,0.82
2023-11-22T08:09:51.882Z,0.63
2023-11-22T08:14:56.994Z,0.73
2023-11-22T08:20:01.395Z,0.50
2023-11-22T08:25:05.282Z,0.50
2023-11-22T08:30:14.842Z,0.57
2023-11-22T08:35:17.038Z,0.30
2023-11-22T08:40:24.949Z,0.55
2023-11-22T08:45:30.561Z,3.00
2023-11-22T08:50:33.150Z,1.50
2023-11-22T08:55:35.341Z,3.90
2023-11-22T09:00:38.272Z,3.50
2023-11-22T09:05:41.378Z,1.23
2023-11-22T09:10:43.903Z,1.42
2023-11-22T09:15:46.389Z,0.70
2023-11-22T09:20:49.604Z,0.75
2023-11-22T09:25:52.603Z,0.50
2023-11-22T09:30:55.115Z,0.57
2023-11-22T09:35:57.267Z,0.30
2023-11-22T09:41:01.056Z,0.20
2023-11-22T09:46:04.726Z,0.40
2023-11-22T09:51:12.909Z,0.60
2023-11-22T09:56:15.870Z,0.22
2023-11-22T10:01:18.744Z,2.38
2023-11-22T10:06:21.762Z,2.90
2023-11-22T10:11:24.016Z,0.60
2023-11-22T10:16:26.662Z,1.35
2023-11-22T10:21:31.943Z,0.80
2023-11-22T10:26:36.825Z,0.93
2023-11-22T10:31:39.580Z,0.35
2023-11-22T10:36:42.008Z,0.50
2023-11-22T10:41:45.231Z,0.43
2023-11-22T10:46:48.694Z,2.40
2023-11-22T10:51:53.625Z,2.30
2023-11-22T10:57:04.098Z,4.10
2023-11-22T11:02:08.312Z,4.15
2023-11-22T11:07:16.779Z,1.88
2023-11-22T11:12:22.576Z,0.40
2023-11-22T11:17:25.751Z,0.93
2023-11-22T11:22:28.781Z,0.25
2023-11-22T11:27:35.203Z,0.10
2023-11-22T11:32:39.648Z,0.55
2023-11-22T11:37:42.313Z,0.30
2023-11-22T11:42:48.427Z,0.40
2023-11-22T11:47:51.626Z,0.20
2023-11-22T11:52:55.167Z,0.45
2023-11-22T11:57:57.699Z,0.17
2023-11-22T12:03:00.888Z,0.50
2023-11-22T12:08:03.993Z,0.43
2023-11-22T12:13:06.592Z,0.30
2023-11-22T12:18:09.532Z,0.85
2023-11-22T12:23:12.909Z,0.30
2023-11-22T12:28:20.967Z,0.38
2023-11-22T12:33:24.868Z,0.30
2023-11-22T12:38:30.883Z,0.20
2023-11-22T12:43:43.735Z,0.40
2023-11-22T12:48:53.346Z,0.30
2023-11-22T12:54:00.000Z,0.10
2023-11-22T12:59:02.963Z,0.50
2023-11-22T13:04:05.860Z,0.20
2023-11-22T13:09:21.035Z,0.40
2023-11-22T13:14:24.711Z,0.35
2023-11-22T13:19:32.231Z,0.17
2023-11-22T13:24:37.558Z,0.25
2023-11-22T13:29:45.340Z,0.30
2023-11-22T13:34:47.523Z,0.30
2023-11-22T13:39:56.501Z,0.10
2023-11-22T13:45:01.714Z,0.30
2023-11-22T13:50:05.153Z,0.28
2023-11-22T13:55:11.955Z,0.13
2023-11-22T14:00:20.746Z,0.20
2023-11-22T14:05:36.337Z,0.15
2023-11-22T14:10:42.373Z,0.10
2023-11-22T14:15:50.409Z,0.10
2023-11-22T14:20:57.600Z,0.55
2023-11-22T14:26:04.143Z,0.43
2023-11-22T14:31:09.408Z,0.50
2023-11-22T14:36:13.576Z,3.20
2023-11-22T14:41:15.841Z,1.70
2023-11-22T14:46:19.108Z,1.00
2023-11-22T14:51:21.338Z,0.40
2023-11-22T14:56:24.417Z,1.00
2023-11-22T15:01:27.532Z,0.45
2023-11-22T15:06:29.760Z,0.40
2023-11-22T15:11:32.223Z,3.47
2023-11-22T15:16:35.116Z,2.13
2023-11-22T15:21:37.929Z,1.10
2023-11-22T15:26:40.259Z,3.40
2023-11-22T15:31:42.862Z,3.88
2023-11-22T15:36:44.836Z,1.60
2023-11-22T15:41:47.455Z,5.15
2023-11-22T15:46:49.694Z,0.40
2023-11-22T15:51:52.219Z,0.20
2023-11-22T15:56:54.735Z,0.20
2023-11-22T16:01:57.722Z,0.25
2023-11-22T16:07:00.075Z,0.20
2023-11-22T16:12:02.452Z,0.65
2023-11-22T16:17:06.045Z,0.20
2023-11-22T16:22:08.474Z,0.40
2023-11-22T16:27:10.759Z,0.22
2023-11-22T16:32:13.099Z,0.40
2023-11-22T16:37:15.369Z,0.40
2023-11-22T16:42:21.746Z,0.20
2023-11-22T16:47:25.444Z,0.35
2023-11-22T16:52:30.407Z,0.20
2023-11-22T16:57:33.748Z,0.43
2023-11-22T17:02:37.108Z,0.50
2023-11-22T17:07:39.328Z,0.40
2023-11-22T17:12:41.893Z,2.65
2023-11-22T17:17:45.160Z,0.80
2023-11-22T17:22:47.494Z,0.43
2023-11-22T17:27:55.102Z,1.05
2023-11-22T17:32:58.635Z,0.75
2023-11-22T17:38:01.968Z,0.98
2023-11-22T17:43:04.462Z,0.60
2023-11-22T17:48:07.196Z,0.70
2023-11-22T17:53:09.702Z,0.40
2023-11-22T17:58:12.822Z,0.50
2023-11-22T18:03:15.341Z,0.22
2023-11-22T18:08:21.142Z,0.65
2023-11-22T18:13:23.315Z,0.45
2023-11-22T18:18:25.749Z,0.80
2023-11-22T18:23:29.885Z,0.30
2023-11-22T18:28:32.199Z,0.60
2023-11-22T18:33:35.192Z,0.28
2023-11-22T18:38:38.014Z,0.40
2023-11-22T18:43:40.291Z,0.30
2023-11-22T18:48:42.795Z,0.50
2023-11-22T18:53:45.619Z,1.23
2023-11-22T18:58:49.023Z,1.10
2023-11-22T19:03:52.043Z,0.80
2023-11-22T19:09:00.280Z,0.65
2023-11-22T19:14:04.493Z,0.68
2023-11-22T19:19:06.970Z,0.90
2023-11-22T19:24:09.369Z,0.63
2023-11-22T19:29:12.520Z,0.57
2023-11-22T19:34:17.730Z,0.60
2023-11-22T19:39:20.933Z,0.80
2023-11-22T19:44:23.623Z,0.93
2023-11-22T19:49:26.338Z,0.63
2023-11-22T19:54:28.783Z,0.60
2023-11-22T19:59:33.448Z,0.80
2023-11-22T20:04:36.465Z,0.95
2023-11-22T20:09:39.043Z,1.08
2023-11-22T20:14:41.466Z,1.08
2023-11-22T20:19:44.261Z,4.10
2023-11-22T20:24:47.349Z,2.50
2023-11-22T20:29:52.232Z,3.58
2023-11-22T20:34:55.075Z,5.47
2023-11-22T20:39:57.657Z,11.95
2023-11-22T20:45:00.082Z,5.15
2023-11-22T20:50:02.411Z,4.63
2023-11-22T20:55:09.909Z,2.80
2023-11-22T21:00:12.949Z,1.50
2023-11-22T21:05:18.244Z,0.50
2023-11-22T21:10:20.892Z,0.60
2023-11-22T21:15:24.418Z,0.47
2023-11-22T21:20:26.727Z,0.38
2023-11-22T21:25:28.966Z,12.30
2023-11-22T21:30:31.772Z,7.70
2023-11-22T21:35:34.042Z,7.07
2023-11-22T21:40:40.411Z,12.40
2023-11-22T21:45:51.287Z,0.74
2023-11-22T21:50:54.070Z,0.28
2023-11-22T21:55:56.503Z,0.50
2023-11-22T22:00:58.685Z,0.70
2023-11-22T22:06:01.494Z,0.32
2023-11-22T22:11:04.635Z,0.43
2023-11-22T22:16:07.376Z,0.55
2023-11-22T22:21:09.885Z,0.40
2023-11-22T22:26:12.173Z,0.60
2023-11-22T22:31:15.824Z,0.50
2023-11-22T22:36:19.613Z,0.30
2023-11-22T22:41:22.922Z,0.20
2023-11-22T22:46:25.036Z,0.50
2023-11-22T22:51:27.694Z,0.50
2023-11-22T22:56:30.626Z,0.50
2023-11-22T23:01:32.948Z,0.30
2023-11-22T23:06:37.252Z,1.00
2023-11-22T23:11:39.656Z,0.60
2023-11-22T23:16:42.118Z,0.50
2023-11-22T23:21:46.151Z,0.88
2023-11-22T23:31:53.580Z,0.80
2023-11-22T23:36:56.806Z,0.60
2023-11-22T23:41:59.365Z,0.60
2023-11-22T23:47:02.499Z,0.55
2023-11-22T23:52:05.199Z,0.47
2023-11-22T23:57:07.651Z,0.60
